Time;durP1;ratioP1;P1;durP2;ratioP2;P2;SDS_P1;SDS_P2;PMS_P1;PMS_P2;Temp;Humidity;BMP_temperature;BMP_pressure;BME280_temperature;BME280_humidity;BME280_pressure;Samples;Min_cycle;Max_cycle;Signal;HPM_P1;HPM_P2
2024/01/16 00:01:45;;;;;;;5.60;0.90;;;0.60;91.90;;;;;;5006427;28;20060;-82
2024/01/16 00:04:11;;;;;;;7.75;1.75;;;0.60;92.00;;;;;;5011789;28;20092;-82
2024/01/16 00:06:43;;;;;;;6.47;1.10;;;0.60;92.00;;;;;;5031098;28;20040;-83
2024/01/16 00:09:12;;;;;;;5.80;1.13;;;0.60;92.10;;;;;;5018462;28;20037;-82
2024/01/16 00:11:44;;;;;;;6.85;1.13;;;0.60;92.10;;;;;;5019345;28;20044;-83
2024/01/16 00:14:10;;;;;;;8.68;1.73;;;0.60;92.30;;;;;;5015560;28;20056;-83
2024/01/16 00:16:46;;;;;;;5.72;1.50;;;0.60;92.20;;;;;;5014821;28;20037;-83
2024/01/16 00:19:12;;;;;;;3.75;0.90;;;0.60;92.40;;;;;;5031722;28;20045;-82
2024/01/16 00:21:39;;;;;;;7.78;1.83;;;0.60;92.30;;;;;;5048030;28;20059;-82
2024/01/16 00:24:05;;;;;;;4.70;0.95;;;0.50;92.30;;;;;;5015012;28;20107;-83
2024/01/16 00:26:31;;;;;;;2.97;0.85;;;0.50;92.50;;;;;;5013923;28;20044;-82
2024/01/16 00:28:56;;;;;;;9.18;1.10;;;0.50;92.20;;;;;;5034029;28;20041;-83
2024/01/16 00:31:23;;;;;;;2.40;0.93;;;0.40;92.40;;;;;;5002491;28;20040;-82
2024/01/16 00:33:49;;;;;;;5.85;1.10;;;0.40;92.30;;;;;;5018834;28;20045;-82
2024/01/16 00:36:15;;;;;;;4.93;1.20;;;0.50;92.40;;;;;;5017782;28;20387;-83
2024/01/16 00:38:40;;;;;;;13.90;1.52;;;0.50;92.40;;;;;;5018650;28;20076;-82
2024/01/16 00:41:06;;;;;;;2.70;1.30;;;0.50;92.30;;;;;;5018586;28;20429;-82
2024/01/16 00:43:32;;;;;;;7.28;1.05;;;0.60;92.30;;;;;;5035152;28;20037;-83
2024/01/16 00:45:58;;;;;;;4.55;0.80;;;0.60;92.30;;;;;;5017782;28;20037;-83
2024/01/16 00:48:24;;;;;;;5.07;1.50;;;0.50;92.20;;;;;;5018656;28;20398;-82
2024/01/16 00:50:50;;;;;;;9.82;1.10;;;0.50;92.10;;;;;;5018488;28;20048;-83
2024/01/16 00:53:17;;;;;;;8.30;1.63;;;0.60;92.00;;;;;;5002065;28;20037;-83
2024/01/16 00:55:42;;;;;;;5.38;1.10;;;0.60;91.90;;;;;;5002272;28;20405;-82
2024/01/16 00:58:08;;;;;;;3.97;1.00;;;0.60;91.90;;;;;;5018313;28;20045;-82
2024/01/16 01:00:35;;;;;;;6.47;1.10;;;0.60;91.80;;;;;;5018159;28;20127;-83
2024/01/16 01:03:01;;;;;;;10.52;1.85;;;0.50;91.80;;;;;;4984866;28;20050;-82
2024/01/16 01:05:28;;;;;;;5.15;1.25;;;0.50;91.90;;;;;;5017914;28;20128;-82
2024/01/16 01:07:57;;;;;;;9.75;1.30;;;0.50;92.00;;;;;;5050920;28;20539;-82
2024/01/16 01:10:23;;;;;;;9.10;1.30;;;0.50;92.00;;;;;;5018090;28;20034;-83
2024/01/16 01:12:51;;;;;;;8.52;2.33;;;0.50;92.10;;;;;;5031030;28;20037;-83
2024/01/16 01:15:17;;;;;;;7.22;1.00;;;0.50;92.10;;;;;;5024508;28;20036;-83
2024/01/16 01:17:43;;;;;;;10.57;2.35;;;0.50;92.20;;;;;;5037784;28;20037;-82
2024/01/16 01:20:09;;;;;;;9.65;2.38;;;0.50;92.30;;;;;;5038037;28;20063;-83
2024/01/16 01:22:35;;;;;;;9.02;2.00;;;0.50;92.30;;;;;;5054165;28;20091;-83
2024/01/16 01:25:01;;;;;;;4.95;1.10;;;0.50;92.40;;;;;;5033929;28;20076;-83
2024/01/16 01:27:26;;;;;;;4.90;1.25;;;0.50;92.50;;;;;;5034509;28;20081;-82
2024/01/16 01:29:52;;;;;;;9.02;2.20;;;0.60;92.50;;;;;;5024995;28;20033;-82
2024/01/16 01:32:17;;;;;;;10.63;1.67;;;0.50;92.40;;;;;;4985310;28;20102;-83
2024/01/16 01:34:43;;;;;;;4.20;1.00;;;0.60;92.40;;;;;;5001275;28;20045;-83
2024/01/16 01:37:09;;;;;;;10.45;1.42;;;0.60;92.40;;;;;;5017627;28;20038;-82
2024/01/16 01:39:35;;;;;;;5.78;1.00;;;0.60;92.40;;;;;;4999907;28;20053;-83
2024/01/16 01:42:00;;;;;;;6.57;1.23;;;0.70;92.40;;;;;;5017368;28;20316;-82
2024/01/16 01:44:26;;;;;;;5.57;1.10;;;0.70;92.30;;;;;;5000947;28;20052;-83
2024/01/16 01:46:55;;;;;;;4.18;1.00;;;0.70;92.30;;;;;;5016595;28;20041;-83
2024/01/16 01:49:22;;;;;;;6.85;1.35;;;0.70;92.50;;;;;;5033882;28;20048;-82
2024/01/16 01:51:49;;;;;;;7.13;1.00;;;0.70;92.30;;;;;;5017394;28;20092;-83
2024/01/16 01:54:16;;;;;;;9.52;1.38;;;0.70;92.20;;;;;;5017454;28;20050;-83
2024/01/16 01:56:47;;;;;;;10.38;2.35;;;0.70;92.20;;;;;;5000776;28;20045;-83
2024/01/16 01:59:14;;;;;;;7.22;1.30;;;0.70;92.20;;;;;;5050124;28;20049;-83
2024/01/16 02:01:41;;;;;;;18.48;2.42;;;0.80;92.30;;;;;;5033607;28;20513;-83
2024/01/16 02:04:08;;;;;;;8.50;2.20;;;0.80;92.20;;;;;;5037377;28;20046;-83
2024/01/16 02:06:34;;;;;;;7.88;1.15;;;0.80;92.00;;;;;;5016859;28;20037;-83
2024/01/16 02:09:00;;;;;;;5.10;1.40;;;0.90;91.80;;;;;;5017305;28;20398;-82
2024/01/16 02:11:26;;;;;;;3.20;0.93;;;0.80;91.40;;;;;;5027559;28;20065;-83
2024/01/16 02:13:52;;;;;;;4.28;1.65;;;0.90;91.20;;;;;;5012590;28;20085;-83
2024/01/16 02:16:22;;;;;;;2.85;0.80;;;0.90;91.00;;;;;;4997255;28;20050;-82
2024/01/16 02:18:48;;;;;;;3.13;0.60;;;0.80;90.80;;;;;;4980941;28;20046;-83
2024/01/16 02:21:21;;;;;;;6.75;1.08;;;0.80;90.60;;;;;;5031691;28;20045;-83
2024/01/16 02:23:47;;;;;;;3.10;0.80;;;0.80;90.40;;;;;;5033134;28;20052;-82
2024/01/16 02:26:17;;;;;;;4.00;0.90;;;0.80;90.00;;;;;;5033382;28;20120;-82
2024/01/16 02:28:42;;;;;;;2.97;0.98;;;0.80;89.70;;;;;;5016605;28;20044;-82
2024/01/16 02:31:08;;;;;;;5.80;1.50;;;0.70;89.50;;;;;;5017399;28;20042;-82
2024/01/16 02:33:34;;;;;;;5.72;0.95;;;0.70;89.40;;;;;;5016529;28;20034;-83
2024/01/16 02:35:59;;;;;;;6.45;1.88;;;0.70;89.00;;;;;;5016481;28;20069;-82
2024/01/16 02:38:25;;;;;;;5.88;0.80;;;0.70;89.10;;;;;;5033217;28;20367;-83
2024/01/16 02:40:51;;;;;;;6.60;1.33;;;0.70;88.80;;;;;;5016332;28;20038;-83
2024/01/16 02:43:17;;;;;;;4.93;1.10;;;0.70;88.50;;;;;;5032677;28;20048;-83
2024/01/16 02:45:43;;;;;;;8.50;0.98;;;0.70;87.90;;;;;;4998793;28;20044;-82
2024/01/16 02:48:09;;;;;;;6.90;1.63;;;0.80;87.30;;;;;;5016290;28;20081;-83
2024/01/16 02:50:35;;;;;;;7.78;2.08;;;0.70;87.40;;;;;;4987756;28;20034;-82
2024/01/16 02:53:00;;;;;;;8.63;1.13;;;0.80;87.40;;;;;;5027696;28;20067;-82
2024/01/16 02:55:26;;;;;;;6.28;1.10;;;0.90;87.30;;;;;;5016166;28;20041;-83
2024/01/16 02:57:52;;;;;;;9.05;1.35;;;0.80;87.40;;;;;;4999876;28;20129;-82
2024/01/16 03:00:17;;;;;;;3.58;0.75;;;0.90;87.50;;;;;;5015737;28;20061;-82
2024/01/16 03:02:44;;;;;;;3.85;0.80;;;0.90;87.70;;;;;;5031107;28;20081;-82
2024/01/16 03:05:10;;;;;;;9.80;1.55;;;0.90;87.90;;;;;;5015894;28;20080;-83
2024/01/16 03:07:36;;;;;;;9.30;1.58;;;0.90;87.90;;;;;;5016289;28;20124;-82
2024/01/16 03:10:03;;;;;;;6.10;1.30;;;1.00;88.30;;;;;;5015638;28;20043;-82
2024/01/16 03:12:28;;;;;;;7.72;1.10;;;0.90;88.40;;;;;;5065826;28;20063;-82
2024/01/16 03:14:54;;;;;;;10.23;1.48;;;0.90;88.50;;;;;;5014116;28;20490;-82
2024/01/16 03:17:20;;;;;;;8.20;2.60;;;1.00;88.70;;;;;;4999510;28;20045;-83
2024/01/16 03:19:46;;;;;;;8.57;1.27;;;1.00;88.80;;;;;;5032010;28;20073;-83
2024/01/16 03:22:12;;;;;;;9.43;1.48;;;0.90;88.80;;;;;;4999532;28;20081;-82
2024/01/16 03:24:38;;;;;;;9.50;1.38;;;1.00;89.20;;;;;;4999559;28;20045;-82
2024/01/16 03:27:04;;;;;;;5.95;1.00;;;1.00;89.40;;;;;;5032116;28;20041;-82
2024/01/16 03:29:30;;;;;;;3.38;1.10;;;1.00;89.20;;;;;;5015313;28;20401;-83
2024/01/16 03:31:55;;;;;;;7.97;2.17;;;1.00;89.30;;;;;;4998225;28;20048;-82
2024/01/16 03:34:21;;;;;;;8.75;1.42;;;1.00;89.40;;;;;;5031887;28;20504;-83
2024/01/16 03:36:47;;;;;;;6.72;1.02;;;1.00;89.50;;;;;;4983163;28;20052;-84
2024/01/16 03:39:14;;;;;;;6.57;1.77;;;1.00;89.60;;;;;;5015285;28;20037;-85
2024/01/16 03:41:39;;;;;;;7.13;1.63;;;1.00;89.70;;;;;;5015577;28;20045;-82
2024/01/16 03:44:05;;;;;;;12.00;1.85;;;0.90;89.70;;;;;;5015496;28;20044;-83
2024/01/16 03:46:31;;;;;;;7.40;1.23;;;0.80;89.50;;;;;;5014243;28;20116;-82
2024/01/16 03:48:56;;;;;;;8.85;1.58;;;0.80;89.60;;;;;;5015569;28;20038;-83
2024/01/16 03:51:22;;;;;;;6.47;2.25;;;0.80;89.70;;;;;;4964072;28;20042;-82
2024/01/16 03:53:48;;;;;;;8.60;2.13;;;0.80;89.80;;;;;;4995767;28;20084;-82
2024/01/16 03:56:15;;;;;;;7.70;1.40;;;0.70;89.70;;;;;;4979733;28;20313;-82
2024/01/16 03:58:41;;;;;;;9.05;1.25;;;0.60;89.60;;;;;;5011967;28;20049;-83
2024/01/16 04:01:07;;;;;;;4.40;0.90;;;0.60;89.80;;;;;;4976491;28;20050;-82
2024/01/16 04:03:34;;;;;;;5.57;1.25;;;0.60;89.90;;;;;;5010237;28;20132;-83
2024/01/16 04:06:00;;;;;;;5.57;1.48;;;0.60;89.90;;;;;;4979791;28;20494;-82
2024/01/16 04:08:26;;;;;;;7.18;0.93;;;0.60;90.00;;;;;;4995741;28;20046;-83
2024/01/16 04:10:51;;;;;;;9.75;1.52;;;0.50;90.10;;;;;;5008343;28;20481;-82
2024/01/16 04:13:17;;;;;;;6.85;1.50;;;0.50;90.00;;;;;;4983151;28;20061;-82
2024/01/16 04:15:43;;;;;;;8.80;1.17;;;0.40;89.90;;;;;;4990410;28;20049;-82
2024/01/16 04:18:10;;;;;;;14.00;1.55;;;0.40;90.10;;;;;;5031410;28;20041;-82
2024/01/16 04:20:36;;;;;;;7.45;1.38;;;0.40;90.10;;;;;;5043578;28;20076;-82
2024/01/16 04:23:02;;;;;;;11.07;1.58;;;0.40;90.30;;;;;;5051457;28;20085;-82
2024/01/16 04:25:28;;;;;;;9.43;1.55;;;0.50;90.30;;;;;;5034619;28;20045;-83
2024/01/16 04:27:54;;;;;;;9.68;1.85;;;0.50;90.20;;;;;;5034979;28;20102;-83
2024/01/16 04:30:22;;;;;;;3.28;0.80;;;0.60;90.10;;;;;;5030884;28;20037;-83
2024/01/16 04:32:48;;;;;;;5.38;1.10;;;0.60;90.10;;;;;;5031147;28;20486;-83
2024/01/16 04:35:14;;;;;;;11.07;1.67;;;0.70;89.90;;;;;;5015136;28;20053;-82
2024/01/16 04:37:40;;;;;;;6.03;1.50;;;0.70;89.90;;;;;;4998746;28;20045;-82
2024/01/16 04:40:06;;;;;;;6.70;1.13;;;0.80;89.80;;;;;;5031460;28;20049;-82
2024/01/16 04:42:32;;;;;;;7.35;1.23;;;0.90;89.70;;;;;;5015092;28;20128;-83
2024/01/16 04:44:58;;;;;;;10.88;1.88;;;1.00;89.50;;;;;;5031286;28;20045;-82
2024/01/16 04:47:24;;;;;;;5.07;1.20;;;1.10;89.40;;;;;;5013794;28;20528;-82
2024/01/16 04:49:49;;;;;;;6.88;1.33;;;1.10;89.20;;;;;;5014711;28;20092;-82
2024/01/16 04:52:15;;;;;;;5.20;1.08;;;1.10;89.20;;;;;;5014602;28;20382;-82
2024/01/16 04:54:41;;;;;;;6.55;1.20;;;1.10;88.90;;;;;;4998410;28;20168;-82
2024/01/16 04:57:07;;;;;;;9.43;1.33;;;1.10;88.90;;;;;;4998466;28;20044;-82
2024/01/16 04:59:32;;;;;;;9.30;1.40;;;1.10;88.70;;;;;;4981958;28;20089;-82
2024/01/16 05:01:58;;;;;;;5.68;0.95;;;1.20;88.50;;;;;;5011606;28;20053;-83
2024/01/16 05:04:24;;;;;;;6.15;1.40;;;1.30;88.20;;;;;;5013799;28;20084;-83
2024/01/16 05:06:51;;;;;;;6.07;1.20;;;1.30;88.00;;;;;;5014483;28;20041;-82
2024/01/16 05:09:19;;;;;;;8.43;2.95;;;1.40;87.80;;;;;;5030866;28;20470;-82
2024/01/16 05:11:45;;;;;;;6.53;1.27;;;1.30;87.70;;;;;;4999075;28;20379;-82
2024/01/16 05:14:11;;;;;;;3.97;1.13;;;1.20;87.90;;;;;;5000968;28;20076;-82
2024/01/16 05:16:36;;;;;;;6.30;1.73;;;1.10;87.80;;;;;;5018175;28;20037;-82
2024/01/16 05:19:02;;;;;;;7.80;1.48;;;1.10;88.10;;;;;;5018681;28;20080;-82
2024/01/16 05:21:28;;;;;;;5.32;1.60;;;1.10;88.10;;;;;;5018397;28;20167;-82
2024/01/16 05:23:54;;;;;;;3.78;1.25;;;1.00;88.40;;;;;;5018226;28;20128;-83
2024/01/16 05:26:19;;;;;;;10.10;1.73;;;0.90;88.50;;;;;;5018399;28;20038;-82
2024/01/16 05:28:45;;;;;;;7.95;1.17;;;0.90;88.70;;;;;;4986053;28;20039;-82
2024/01/16 05:31:11;;;;;;;7.63;1.80;;;0.90;88.70;;;;;;5001953;28;20029;-82
2024/01/16 05:33:41;;;;;;;8.32;1.10;;;0.80;88.80;;;;;;5017168;28;20041;-82
2024/01/16 05:36:07;;;;;;;7.50;1.52;;;0.80;89.10;;;;;;5015685;28;20037;-84
2024/01/16 05:38:33;;;;;;;8.18;1.40;;;0.70;89.20;;;;;;5015024;28;20068;-82
2024/01/16 05:40:59;;;;;;;7.05;1.05;;;0.80;89.30;;;;;;5016734;28;20116;-82
2024/01/16 05:43:25;;;;;;;6.68;1.05;;;0.80;89.50;;;;;;4984152;28;20144;-82
2024/01/16 05:45:51;;;;;;;7.30;1.38;;;0.80;89.70;;;;;;5015909;28;20140;-81
2024/01/16 05:48:17;;;;;;;4.38;1.27;;;0.80;89.60;;;;;;4998767;28;20038;-81
2024/01/16 05:50:43;;;;;;;9.15;1.50;;;0.80;89.60;;;;;;4980296;28;20052;-83
2024/01/16 05:53:08;;;;;;;6.55;1.23;;;0.90;89.70;;;;;;5011870;28;20041;-83
2024/01/16 05:55:36;;;;;;;7.03;1.63;;;0.80;89.70;;;;;;5037513;28;20409;-82
2024/01/16 05:58:02;;;;;;;10.35;1.40;;;0.80;89.70;;;;;;5021617;28;20128;-83
2024/01/16 06:00:28;;;;;;;7.10;1.63;;;0.80;89.80;;;;;;5037460;28;20465;-83
2024/01/16 06:02:54;;;;;;;16.92;2.40;;;0.80;89.80;;;;;;5037775;28;20081;-83
2024/01/16 06:05:20;;;;;;;6.85;1.50;;;0.70;90.00;;;;;;5023389;28;20046;-83
2024/01/16 06:07:45;;;;;;;9.70;1.58;;;0.70;90.20;;;;;;4982038;28;20034;-82
2024/01/16 06:10:14;;;;;;;7.20;1.10;;;0.80;90.10;;;;;;4982163;28;20044;-84
2024/01/16 06:12:40;;;;;;;10.90;1.98;;;0.80;90.20;;;;;;4997855;28;20045;-80
2024/01/16 06:15:06;;;;;;;12.85;1.75;;;0.80;90.30;;;;;;4997642;28;20042;-81
2024/01/16 06:17:32;;;;;;;10.00;1.40;;;0.80;90.20;;;;;;4997845;28;20133;-79
2024/01/16 06:19:58;;;;;;;11.88;1.77;;;0.80;90.30;;;;;;5013961;28;20088;-79
2024/01/16 06:22:23;;;;;;;8.27;1.30;;;0.90;90.10;;;;;;5013972;28;20053;-80
2024/01/16 06:24:49;;;;;;;9.98;2.70;;;0.90;90.00;;;;;;5018850;28;20477;-84
2024/01/16 06:27:18;;;;;;;7.32;1.25;;;0.90;90.00;;;;;;5000686;28;20029;-81
2024/01/16 06:29:48;;;;;;;7.20;1.58;;;0.90;90.10;;;;;;5001588;28;20386;-83
2024/01/16 06:32:14;;;;;;;5.97;1.40;;;0.90;90.30;;;;;;5016841;28;20040;-81
2024/01/16 06:34:40;;;;;;;7.85;1.35;;;0.90;90.30;;;;;;5016645;28;20038;-82
2024/01/16 06:37:05;;;;;;;6.00;1.30;;;0.90;90.40;;;;;;5016782;28;20069;-82
2024/01/16 06:39:31;;;;;;;6.82;1.63;;;0.90;90.50;;;;;;5016675;28;20037;-82
2024/01/16 06:41:59;;;;;;;6.15;1.70;;;0.90;90.50;;;;;;5016521;28;20037;-81
2024/01/16 06:44:25;;;;;;;7.72;1.45;;;0.90;90.60;;;;;;5032020;28;20509;-79
2024/01/16 06:46:51;;;;;;;7.20;1.42;;;0.90;90.70;;;;;;5033370;28;20033;-80
2024/01/16 06:49:16;;;;;;;5.80;1.30;;;0.90;90.70;;;;;;5000202;28;20374;-80
2024/01/16 06:51:42;;;;;;;11.55;1.40;;;0.90;90.90;;;;;;5032815;28;20045;-79
2024/01/16 06:54:08;;;;;;;6.57;1.55;;;0.80;90.80;;;;;;5032797;28;20053;-80
2024/01/16 06:56:34;;;;;;;5.93;1.30;;;0.80;90.80;;;;;;5016375;28;20124;-80
2024/01/16 06:58:59;;;;;;;10.50;2.00;;;0.80;90.90;;;;;;5016399;28;20076;-79
2024/01/16 07:01:26;;;;;;;6.47;1.38;;;0.70;91.10;;;;;;5016085;28;20053;-79
2024/01/16 07:03:52;;;;;;;6.50;1.60;;;0.70;91.10;;;;;;4999926;28;20562;-79
2024/01/16 07:06:18;;;;;;;10.48;1.40;;;0.70;91.00;;;;;;5033088;28;20045;-79
2024/01/16 07:08:44;;;;;;;7.95;1.63;;;0.70;91.20;;;;;;4992000;28;20092;-80
2024/01/16 07:11:13;;;;;;;9.20;1.60;;;0.60;91.40;;;;;;5013546;28;20383;-78
2024/01/16 07:13:39;;;;;;;8.77;1.35;;;0.60;91.40;;;;;;5014277;28;20041;-79
2024/01/16 07:16:05;;;;;;;6.47;1.50;;;0.60;91.60;;;;;;5029989;28;20394;-81
2024/01/16 07:18:30;;;;;;;10.68;1.80;;;0.60;91.60;;;;;;5012923;28;20049;-79
2024/01/16 07:20:56;;;;;;;10.40;1.80;;;0.60;91.50;;;;;;4991174;28;20052;-81
2024/01/16 07:23:22;;;;;;;10.45;1.60;;;0.50;91.70;;;;;;5030261;28;20086;-81
2024/01/16 07:25:47;;;;;;;9.50;2.03;;;0.50;92.40;;;;;;4996098;28;20068;-82
2024/01/16 07:28:14;;;;;;;5.97;1.52;;;0.50;92.40;;;;;;4995540;28;20071;-81
2024/01/16 07:30:40;;;;;;;6.88;1.40;;;0.40;92.60;;;;;;5013409;28;20042;-81
2024/01/16 07:33:06;;;;;;;10.68;1.98;;;0.50;92.60;;;;;;5012505;28;20075;-81
2024/01/16 07:35:31;;;;;;;10.90;1.92;;;0.50;92.30;;;;;;5026261;28;20048;-82
2024/01/16 07:37:57;;;;;;;6.38;1.73;;;0.50;92.20;;;;;;4994801;28;20453;-81
2024/01/16 07:40:23;;;;;;;10.32;1.17;;;0.50;92.00;;;;;;5012305;28;20045;-81
2024/01/16 07:42:49;;;;;;;8.85;1.65;;;0.50;92.70;;;;;;4997043;28;20068;-81
2024/01/16 07:45:15;;;;;;;7.43;1.13;;;0.60;93.10;;;;;;5019805;28;20049;-81
2024/01/16 07:47:41;;;;;;;5.57;1.20;;;0.60;93.40;;;;;;5009053;28;20044;-80
2024/01/16 07:50:07;;;;;;;15.55;1.73;;;0.60;92.60;;;;;;5011845;28;20046;-80
2024/01/16 07:52:33;;;;;;;3.95;1.27;;;0.80;92.80;;;;;;5012124;28;20044;-80
2024/01/16 07:54:59;;;;;;;5.53;1.05;;;0.80;92.90;;;;;;5029102;28;20037;-81
2024/01/16 07:57:24;;;;;;;7.75;0.93;;;0.90;93.00;;;;;;5013261;28;20513;-81
2024/01/16 07:59:50;;;;;;;9.70;1.10;;;0.90;93.00;;;;;;5027897;28;20068;-80
2024/01/16 08:02:17;;;;;;;8.52;1.10;;;1.00;93.30;;;;;;5011008;28;20072;-81
2024/01/16 08:04:42;;;;;;;6.28;1.05;;;0.90;93.20;;;;;;5025686;28;20049;-81
2024/01/16 08:07:08;;;;;;;7.82;1.45;;;0.90;93.40;;;;;;5029048;28;20041;-80
2024/01/16 08:09:35;;;;;;;6.22;1.30;;;0.90;93.60;;;;;;4995676;28;20033;-80
2024/01/16 08:12:02;;;;;;;2.75;0.82;;;0.90;93.70;;;;;;5024750;28;20045;-80
2024/01/16 08:14:29;;;;;;;6.60;1.50;;;1.00;93.70;;;;;;5012882;28;20052;-81
2024/01/16 08:16:54;;;;;;;6.40;1.00;;;1.00;94.00;;;;;;5011148;28;20045;-81
2024/01/16 08:19:20;;;;;;;4.30;0.80;;;1.00;94.10;;;;;;5007911;28;20041;-81
2024/01/16 08:21:46;;;;;;;5.05;0.90;;;1.00;94.20;;;;;;5012992;28;20053;-82
2024/01/16 08:24:12;;;;;;;9.70;1.60;;;1.00;94.30;;;;;;5012269;28;20041;-80
2024/01/16 08:26:38;;;;;;;10.52;1.50;;;0.90;94.50;;;;;;5028505;28;20046;-81
2024/01/16 08:29:05;;;;;;;4.05;0.90;;;0.80;94.70;;;;;;4991216;28;20049;-80
2024/01/16 08:31:30;;;;;;;6.63;1.55;;;0.80;94.50;;;;;;5012975;28;20127;-79
2024/01/16 08:33:57;;;;;;;6.22;1.88;;;0.80;94.70;;;;;;5012550;28;20064;-80
2024/01/16 08:36:23;;;;;;;3.85;0.80;;;0.80;94.90;;;;;;5027868;28;20049;-81
2024/01/16 08:38:49;;;;;;;6.40;1.85;;;0.80;94.80;;;;;;5011782;28;20041;-79
2024/01/16 08:41:15;;;;;;;4.22;1.08;;;0.80;94.80;;;;;;5029532;28;20041;-82
2024/01/16 08:43:40;;;;;;;7.43;0.98;;;0.70;94.90;;;;;;5011131;28;20061;-81
2024/01/16 08:46:06;;;;;;;3.17;0.68;;;0.70;95.10;;;;;;4979714;28;20052;-81
2024/01/16 08:48:32;;;;;;;7.03;0.70;;;0.70;95.00;;;;;;4981256;28;20045;-80
2024/01/16 08:50:58;;;;;;;2.85;0.75;;;0.80;94.90;;;;;;4983512;28;20136;-81
2024/01/16 08:53:24;;;;;;;3.25;0.82;;;0.70;94.90;;;;;;4998009;28;20052;-80
2024/01/16 08:55:50;;;;;;;3.55;0.70;;;0.70;94.90;;;;;;5018363;28;20367;-81
2024/01/16 08:58:16;;;;;;;5.00;1.05;;;0.70;95.00;;;;;;5002046;28;20040;-81
2024/01/16 09:00:42;;;;;;;2.00;0.80;;;0.60;94.90;;;;;;5017898;28;20571;-81
2024/01/16 09:03:07;;;;;;;3.53;0.77;;;0.70;94.90;;;;;;5015869;28;20045;-81
2024/01/16 09:05:38;;;;;;;2.25;0.60;;;0.60;95.00;;;;;;4982729;28;20042;-81
2024/01/16 09:08:04;;;;;;;4.13;1.35;;;0.60;95.10;;;;;;4982762;28;20038;-80
2024/01/16 09:10:30;;;;;;;3.53;0.98;;;0.60;95.10;;;;;;5001119;28;20451;-80
2024/01/16 09:12:55;;;;;;;3.53;0.90;;;0.60;95.00;;;;;;4985543;28;20041;-80
2024/01/16 09:15:21;;;;;;;5.20;0.90;;;0.70;95.00;;;;;;5034125;28;20044;-82
2024/01/16 09:17:47;;;;;;;3.35;0.65;;;0.70;94.90;;;;;;5017730;28;20414;-82
2024/01/16 09:20:12;;;;;;;2.97;0.73;;;0.80;94.80;;;;;;5028223;28;20077;-82
2024/01/16 09:22:38;;;;;;;5.30;0.90;;;0.90;94.80;;;;;;5021303;28;20045;-82
2024/01/16 09:25:05;;;;;;;4.60;0.80;;;0.90;94.60;;;;;;5017869;28;20501;-81
2024/01/16 09:27:31;;;;;;;3.88;0.60;;;1.00;94.70;;;;;;5033569;28;20509;-81
2024/01/16 09:29:56;;;;;;;3.55;0.90;;;1.00;94.90;;;;;;5037981;28;20043;-81
2024/01/16 09:32:22;;;;;;;5.18;0.70;;;1.00;94.80;;;;;;5054429;28;20555;-81
2024/01/16 09:34:48;;;;;;;3.85;0.90;;;1.00;94.90;;;;;;5038206;28;20052;-81
2024/01/16 09:37:14;;;;;;;3.58;1.00;;;1.00;94.90;;;;;;5040639;28;20121;-82
2024/01/16 09:39:41;;;;;;;6.53;1.30;;;1.00;94.70;;;;;;5018774;28;20498;-80
2024/01/16 09:42:07;;;;;;;7.13;1.17;;;1.10;94.80;;;;;;5018363;28;20124;-81
2024/01/16 09:44:34;;;;;;;3.95;1.20;;;1.20;94.80;;;;;;5038209;28;20072;-82
2024/01/16 09:47:03;;;;;;;3.95;1.10;;;1.10;94.70;;;;;;5034967;28;20044;-82
2024/01/16 09:49:29;;;;;;;8.85;1.38;;;1.20;94.80;;;;;;5034396;28;20124;-82
2024/01/16 09:51:55;;;;;;;3.72;1.40;;;1.10;94.70;;;;;;5001428;28;20457;-81
2024/01/16 09:54:21;;;;;;;4.50;1.30;;;1.00;94.80;;;;;;5001022;28;20096;-83
2024/01/16 09:56:51;;;;;;;7.40;1.45;;;1.10;94.80;;;;;;5017395;28;20044;-81
2024/01/16 09:59:21;;;;;;;9.95;2.60;;;1.10;94.90;;;;;;5016611;28;20133;-83
2024/01/16 10:01:49;;;;;;;5.25;1.77;;;1.00;95.00;;;;;;5017398;28;20128;-82
2024/01/16 10:04:15;;;;;;;8.45;2.53;;;1.00;95.20;;;;;;5034022;28;20405;-81
2024/01/16 10:06:44;;;;;;;7.72;2.95;;;1.00;95.10;;;;;;5017673;28;20456;-82
2024/01/16 10:09:12;;;;;;;4.55;1.65;;;1.10;95.10;;;;;;5017723;28;20037;-81
2024/01/16 10:11:38;;;;;;;6.13;1.65;;;1.10;95.30;;;;;;5017929;28;20033;-81
2024/01/16 10:14:04;;;;;;;10.60;1.60;;;1.10;95.30;;;;;;5033939;28;20083;-81
2024/01/16 10:17:14;;;;;;;8.10;1.30;;;1.10;95.40;;;;;;5001169;28;20073;-82
2024/01/16 10:19:51;;;;;;;7.88;1.60;;;1.10;95.40;;;;;;5034130;28;20125;-83
2024/01/16 10:22:21;;;;;;;7.03;1.90;;;1.10;95.50;;;;;;5031746;28;20041;-82
2024/01/16 10:24:48;;;;;;;7.80;1.27;;;1.00;95.70;;;;;;5020759;28;20048;-82
2024/01/16 10:27:18;;;;;;;7.15;1.80;;;1.00;95.90;;;;;;5053546;28;20366;-81
2024/01/16 10:29:58;;;;;;;6.57;1.70;;;1.00;95.90;;;;;;5017979;28;20041;-82
2024/01/16 10:32:31;;;;;;;4.43;1.40;;;0.90;96.20;;;;;;5005378;28;20044;-81
2024/01/16 10:35:12;;;;;;;10.23;2.17;;;0.90;96.10;;;;;;5014391;28;20045;-84
2024/01/16 10:37:51;;;;;;;7.85;3.30;;;0.90;96.00;;;;;;5014919;28;20060;-81
2024/01/16 10:40:18;;;;;;;6.20;2.67;;;0.90;96.00;;;;;;5030366;28;20617;-81
2024/01/16 10:42:57;;;;;;;6.88;3.25;;;1.00;96.00;;;;;;5029188;28;20049;-84
2024/01/16 10:45:22;;;;;;;7.60;3.60;;;1.00;96.10;;;;;;4996120;28;20045;-81
2024/01/16 10:48:00;;;;;;;6.47;3.17;;;1.10;96.20;;;;;;5014038;28;20402;-81
2024/01/16 10:50:26;;;;;;;9.05;2.25;;;1.10;96.20;;;;;;5022689;28;20033;-81
2024/01/16 10:52:54;;;;;;;4.63;1.63;;;1.10;96.00;;;;;;4994848;28;20108;-81
2024/01/16 10:55:24;;;;;;;6.57;1.50;;;1.20;95.70;;;;;;5013680;28;20123;-82
2024/01/16 10:57:50;;;;;;;4.45;1.15;;;1.20;95.30;;;;;;5024769;28;20052;-83
2024/01/16 11:00:21;;;;;;;2.55;0.85;;;1.30;95.10;;;;;;5030458;28;20061;-82
2024/01/16 11:03:05;;;;;;;5.75;1.23;;;1.20;94.80;;;;;;5011080;28;20045;-81
2024/01/16 11:05:37;;;;;;;10.23;1.67;;;1.10;94.60;;;;;;5007424;28;20508;-81
2024/01/16 11:08:06;;;;;;;7.88;2.03;;;1.10;94.70;;;;;;5027413;28;20037;-81
2024/01/16 11:10:34;;;;;;;5.60;1.40;;;1.00;94.80;;;;;;5014474;28;20037;-80
2024/01/16 11:13:02;;;;;;;7.03;1.40;;;1.00;95.00;;;;;;5003968;28;20065;-82
2024/01/16 11:15:28;;;;;;;6.43;1.33;;;1.00;95.10;;;;;;5036348;28;20515;-82
2024/01/16 11:17:56;;;;;;;5.22;1.65;;;1.10;95.00;;;;;;5025670;28;20044;-81
2024/01/16 11:20:23;;;;;;;11.82;2.00;;;1.10;95.00;;;;;;5027103;28;20038;-83
2024/01/16 11:22:50;;;;;;;10.93;2.55;;;1.10;95.00;;;;;;4994933;28;20099;-82
2024/01/16 11:25:18;;;;;;;7.60;2.17;;;1.10;95.00;;;;;;4962046;28;20092;-83
2024/01/16 11:27:50;;;;;;;9.02;1.40;;;1.20;95.00;;;;;;4994240;28;20108;-83
2024/01/16 11:30:31;;;;;;;14.30;3.22;;;1.30;95.00;;;;;;5030222;28;20045;-81
2024/01/16 11:32:57;;;;;;;6.15;2.50;;;1.30;95.00;;;;;;5014047;28;20111;-83
2024/01/16 11:35:40;;;;;;;7.55;2.65;;;1.30;95.00;;;;;;5013870;28;20497;-82
2024/01/16 11:38:09;;;;;;;7.80;2.42;;;1.40;95.00;;;;;;5063035;28;20045;-81
2024/01/16 11:40:35;;;;;;;8.80;1.92;;;1.40;95.00;;;;;;5031889;28;20494;-82
2024/01/16 11:43:32;;;;;;;6.85;1.63;;;1.60;95.00;;;;;;5036847;28;20048;-82
2024/01/16 11:45:58;;;;;;;6.55;1.10;;;1.50;94.80;;;;;;4995799;28;20045;-81
2024/01/16 11:48:25;;;;;;;8.60;1.92;;;1.60;94.90;;;;;;5012141;28;20103;-81
2024/01/16 11:50:52;;;;;;;7.25;1.27;;;1.60;94.80;;;;;;4979789;28;20449;-81
2024/01/16 11:53:41;;;;;;;5.15;1.70;;;1.60;94.70;;;;;;4998986;28;20081;-80
2024/01/16 11:56:39;;;;;;;7.53;2.17;;;1.60;94.70;;;;;;5034510;28;20037;-81
2024/01/16 11:59:43;;;;;;;8.20;2.33;;;1.60;94.60;;;;;;5031918;28;20041;-80
2024/01/16 12:02:14;;;;;;;11.30;2.15;;;1.80;94.70;;;;;;5015350;28;20516;-81
2024/01/16 12:04:39;;;;;;;7.97;2.80;;;2.10;94.70;;;;;;5031514;28;20037;-82
2024/01/16 12:07:05;;;;;;;7.63;2.20;;;2.30;94.70;;;;;;5015191;28;20095;-82
2024/01/16 12:09:31;;;;;;;7.40;2.30;;;2.40;93.50;;;;;;5015156;28;20041;-81
2024/01/16 12:12:02;;;;;;;8.98;3.35;;;2.60;93.80;;;;;;5048095;28;20394;-82
2024/01/16 12:14:28;;;;;;;8.85;3.53;;;2.60;92.80;;;;;;5040951;28;20641;-81
2024/01/16 12:17:13;;;;;;;9.52;3.47;;;2.90;92.90;;;;;;4999058;28;20084;-82
2024/01/16 12:19:41;;;;;;;7.43;3.20;;;3.00;92.80;;;;;;5031661;28;20481;-81
2024/01/16 12:22:13;;;;;;;13.07;3.75;;;3.20;92.30;;;;;;5021265;28;20052;-81
2024/01/16 12:24:39;;;;;;;9.90;3.03;;;3.20;91.20;;;;;;5055280;28;20091;-82
2024/01/16 12:27:05;;;;;;;13.13;3.85;;;3.10;90.20;;;;;;5052056;28;20041;-82
2024/01/16 12:29:32;;;;;;;7.30;3.42;;;3.00;89.60;;;;;;5025799;28;20044;-81
2024/01/16 12:32:11;;;;;;;9.48;3.03;;;3.00;90.90;;;;;;5046100;28;20038;-81
2024/01/16 12:34:45;;;;;;;6.15;3.53;;;3.00;91.40;;;;;;5035837;28;20486;-82
2024/01/16 12:37:12;;;;;;;13.07;3.65;;;2.70;90.90;;;;;;5018874;28;20048;-81
2024/01/16 12:39:38;;;;;;;5.93;3.58;;;2.60;90.40;;;;;;5035389;28;20053;-81
2024/01/16 12:42:04;;;;;;;6.20;3.33;;;2.70;90.80;;;;;;5019252;28;20087;-83
2024/01/16 12:44:30;;;;;;;17.33;4.90;;;3.00;90.70;;;;;;5042510;28;20037;-82
2024/01/16 12:46:57;;;;;;;9.90;4.03;;;3.30;89.70;;;;;;5024466;28;20041;-81
2024/01/16 12:49:23;;;;;;;7.40;3.95;;;3.50;88.90;;;;;;5018936;28;20045;-81
2024/01/16 12:51:50;;;;;;;6.38;3.67;;;3.70;89.90;;;;;;5018952;28;20033;-81
2024/01/16 12:54:18;;;;;;;8.18;3.50;;;3.90;89.20;;;;;;5035548;28;20037;-82
2024/01/16 12:56:44;;;;;;;7.45;3.72;;;4.00;86.90;;;;;;5018610;28;20049;-81